sensor_id;sensor_type;location;lat;lon;timestamp;temperature;humidity
48860;DHT22;34679;51.436;-2.518;2023-08-06T00:01:55;12.10;99.90
48860;DHT22;34679;51.436;-2.518;2023-08-06T00:04:21;12.10;99.90
48860;DHT22;34679;51.436;-2.518;2023-08-06T00:06:46;12.10;99.90
48860;DHT22;34679;51.436;-2.518;2023-08-06T00:09:12;12.10;99.90
48860;DHT22;34679;51.436;-2.518;2023-08-06T00:11:38;12.10;99.90
48860;DHT22;34679;51.436;-2.518;2023-08-06T00:14:04;12.00;99.90
48860;DHT22;34679;51.436;-2.518;2023-08-06T00:16:30;12.00;99.90
48860;DHT22;34679;51.436;-2.518;2023-08-06T00:18:55;11.90;99.90
48860;DHT22;34679;51.436;-2.518;2023-08-06T00:21:21;11.90;99.90
48860;DHT22;34679;51.436;-2.518;2023-08-06T00:23:47;11.80;99.90
48860;DHT22;34679;51.436;-2.518;2023-08-06T00:26:12;11.80;99.90
48860;DHT22;34679;51.436;-2.518;2023-08-06T00:28:38;11.70;99.90
48860;DHT22;34679;51.436;-2.518;2023-08-06T00:31:04;11.70;99.90
48860;DHT22;34679;51.436;-2.518;2023-08-06T00:33:29;11.70;99.90
48860;DHT22;34679;51.436;-2.518;2023-08-06T00:35:55;11.60;99.90
48860;DHT22;34679;51.436;-2.518;2023-08-06T00:38:20;11.60;99.90
48860;DHT22;34679;51.436;-2.518;2023-08-06T00:40:46;11.50;99.90
48860;DHT22;34679;51.436;-2.518;2023-08-06T00:43:12;11.60;99.90
48860;DHT22;34679;51.436;-2.518;2023-08-06T00:45:38;11.50;99.90
48860;DHT22;34679;51.436;-2.518;2023-08-06T00:48:05;11.60;99.90
48860;DHT22;34679;51.436;-2.518;2023-08-06T00:50:32;11.50;99.90
48860;DHT22;34679;51.436;-2.518;2023-08-06T00:52:58;11.50;99.90
48860;DHT22;34679;51.436;-2.518;2023-08-06T00:55:24;11.50;99.90
48860;DHT22;34679;51.436;-2.518;2023-08-06T00:57:50;11.50;99.90
48860;DHT22;34679;51.436;-2.518;2023-08-06T01:00:19;11.50;99.90
48860;DHT22;34679;51.436;-2.518;2023-08-06T01:02:46;11.50;99.90
48860;DHT22;34679;51.436;-2.518;2023-08-06T01:05:13;11.50;99.90
48860;DHT22;34679;51.436;-2.518;2023-08-06T01:13:43;11.40;99.90
48860;DHT22;34679;51.436;-2.518;2023-08-06T01:16:12;11.40;99.90
48860;DHT22;34679;51.436;-2.518;2023-08-06T01:18:40;11.30;99.90
48860;DHT22;34679;51.436;-2.518;2023-08-06T01:21:07;11.30;99.90
48860;DHT22;34679;51.436;-2.518;2023-08-06T01:23:33;11.30;99.90
48860;DHT22;34679;51.436;-2.518;2023-08-06T01:29:08;11.10;99.90
48860;DHT22;34679;51.436;-2.518;2023-08-06T01:31:37;11.20;99.90
48860;DHT22;34679;51.436;-2.518;2023-08-06T01:36:47;11.10;99.90
48860;DHT22;34679;51.436;-2.518;2023-08-06T01:39:13;11.10;99.90
48860;DHT22;34679;51.436;-2.518;2023-08-06T01:41:39;11.00;99.90
48860;DHT22;34679;51.436;-2.518;2023-08-06T01:44:05;11.00;99.90
48860;DHT22;34679;51.436;-2.518;2023-08-06T01:46:30;11.00;99.90
48860;DHT22;34679;51.436;-2.518;2023-08-06T01:48:56;11.00;99.90
48860;DHT22;34679;51.436;-2.518;2023-08-06T01:51:22;10.90;99.90
48860;DHT22;34679;51.436;-2.518;2023-08-06T01:53:48;10.90;99.90
48860;DHT22;34679;51.436;-2.518;2023-08-06T01:56:13;10.90;99.90
48860;DHT22;34679;51.436;-2.518;2023-08-06T01:58:39;10.90;99.90
48860;DHT22;34679;51.436;-2.518;2023-08-06T02:01:05;10.90;99.90
48860;DHT22;34679;51.436;-2.518;2023-08-06T02:03:31;10.90;99.90
48860;DHT22;34679;51.436;-2.518;2023-08-06T02:05:56;10.90;99.90
48860;DHT22;34679;51.436;-2.518;2023-08-06T02:08:22;10.80;99.90
48860;DHT22;34679;51.436;-2.518;2023-08-06T02:10:48;10.80;99.90
48860;DHT22;34679;51.436;-2.518;2023-08-06T02:13:14;10.80;99.90
48860;DHT22;34679;51.436;-2.518;2023-08-06T02:15:43;10.80;99.90
48860;DHT22;34679;51.436;-2.518;2023-08-06T02:18:09;10.70;99.90
48860;DHT22;34679;51.436;-2.518;2023-08-06T02:20:35;10.70;99.90
48860;DHT22;34679;51.436;-2.518;2023-08-06T02:23:01;10.70;99.90
48860;DHT22;34679;51.436;-2.518;2023-08-06T02:25:26;10.70;99.90
48860;DHT22;34679;51.436;-2.518;2023-08-06T02:27:52;10.70;99.90
48860;DHT22;34679;51.436;-2.518;2023-08-06T02:30:18;10.70;99.90
48860;DHT22;34679;51.436;-2.518;2023-08-06T02:32:44;10.70;99.90
48860;DHT22;34679;51.436;-2.518;2023-08-06T02:35:09;10.70;99.90
48860;DHT22;34679;51.436;-2.518;2023-08-06T02:37:35;10.60;99.90
48860;DHT22;34679;51.436;-2.518;2023-08-06T02:40:01;10.70;99.90
48860;DHT22;34679;51.436;-2.518;2023-08-06T02:42:27;10.70;99.90
48860;DHT22;34679;51.436;-2.518;2023-08-06T02:44:53;10.80;99.90
48860;DHT22;34679;51.436;-2.518;2023-08-06T02:47:22;10.80;99.90
48860;DHT22;34679;51.436;-2.518;2023-08-06T02:49:47;10.80;99.90
48860;DHT22;34679;51.436;-2.518;2023-08-06T02:52:13;10.80;99.90
48860;DHT22;34679;51.436;-2.518;2023-08-06T02:54:39;10.90;99.90
48860;DHT22;34679;51.436;-2.518;2023-08-06T02:57:05;10.90;99.90
48860;DHT22;34679;51.436;-2.518;2023-08-06T02:59:32;10.90;99.90
48860;DHT22;34679;51.436;-2.518;2023-08-06T03:01:58;10.90;99.90
48860;DHT22;34679;51.436;-2.518;2023-08-06T03:04:24;10.90;99.90
48860;DHT22;34679;51.436;-2.518;2023-08-06T03:06:50;10.80;99.90
48860;DHT22;34679;51.436;-2.518;2023-08-06T03:09:17;10.70;99.90
48860;DHT22;34679;51.436;-2.518;2023-08-06T03:11:43;10.60;99.90
48860;DHT22;34679;51.436;-2.518;2023-08-06T03:14:08;10.50;99.90
48860;DHT22;34679;51.436;-2.518;2023-08-06T03:16:34;10.40;99.90
48860;DHT22;34679;51.436;-2.518;2023-08-06T03:19:00;10.30;99.90
48860;DHT22;34679;51.436;-2.518;2023-08-06T03:21:26;10.30;99.90
48860;DHT22;34679;51.436;-2.518;2023-08-06T03:23:52;10.20;99.90
48860;DHT22;34679;51.436;-2.518;2023-08-06T03:26:18;10.10;99.90
48860;DHT22;34679;51.436;-2.518;2023-08-06T03:28:44;10.10;99.90
48860;DHT22;34679;51.436;-2.518;2023-08-06T03:31:09;10.00;99.90
48860;DHT22;34679;51.436;-2.518;2023-08-06T03:33:35;9.90;99.90
48860;DHT22;34679;51.436;-2.518;2023-08-06T03:36:01;9.90;99.90
48860;DHT22;34679;51.436;-2.518;2023-08-06T03:38:27;9.90;99.90
48860;DHT22;34679;51.436;-2.518;2023-08-06T03:40:53;9.80;99.90
48860;DHT22;34679;51.436;-2.518;2023-08-06T03:43:19;9.80;99.90
48860;DHT22;34679;51.436;-2.518;2023-08-06T03:45:45;9.80;99.90
48860;DHT22;34679;51.436;-2.518;2023-08-06T03:48:10;9.70;99.90
48860;DHT22;34679;51.436;-2.518;2023-08-06T03:50:36;9.70;99.90
48860;DHT22;34679;51.436;-2.518;2023-08-06T03:53:02;9.70;99.90
48860;DHT22;34679;51.436;-2.518;2023-08-06T03:55:28;9.60;99.90
48860;DHT22;34679;51.436;-2.518;2023-08-06T03:57:53;9.60;99.90
48860;DHT22;34679;51.436;-2.518;2023-08-06T04:00:19;9.60;99.90
48860;DHT22;34679;51.436;-2.518;2023-08-06T04:02:45;9.60;99.90
48860;DHT22;34679;51.436;-2.518;2023-08-06T04:05:11;9.50;99.90
48860;DHT22;34679;51.436;-2.518;2023-08-06T04:07:37;9.50;99.90
48860;DHT22;34679;51.436;-2.518;2023-08-06T04:10:04;9.50;99.90
48860;DHT22;34679;51.436;-2.518;2023-08-06T04:12:30;9.40;99.90
48860;DHT22;34679;51.436;-2.518;2023-08-06T04:15:00;9.40;99.90
48860;DHT22;34679;51.436;-2.518;2023-08-06T04:17:26;9.40;99.90
48860;DHT22;34679;51.436;-2.518;2023-08-06T04:19:54;9.40;99.90
48860;DHT22;34679;51.436;-2.518;2023-08-06T04:22:21;9.30;99.90
48860;DHT22;34679;51.436;-2.518;2023-08-06T04:24:47;9.30;99.90
48860;DHT22;34679;51.436;-2.518;2023-08-06T04:27:14;9.20;99.90
48860;DHT22;34679;51.436;-2.518;2023-08-06T04:29:40;9.20;99.90
48860;DHT22;34679;51.436;-2.518;2023-08-06T04:32:08;9.20;99.90
48860;DHT22;34679;51.436;-2.518;2023-08-06T04:34:35;9.20;99.90
48860;DHT22;34679;51.436;-2.518;2023-08-06T04:37:02;9.30;99.90
48860;DHT22;34679;51.436;-2.518;2023-08-06T04:39:28;9.30;99.90
48860;DHT22;34679;51.436;-2.518;2023-08-06T04:41:54;9.30;99.90
48860;DHT22;34679;51.436;-2.518;2023-08-06T04:44:20;9.20;99.90
48860;DHT22;34679;51.436;-2.518;2023-08-06T04:46:46;9.20;99.90
48860;DHT22;34679;51.436;-2.518;2023-08-06T04:49:12;9.20;99.90
48860;DHT22;34679;51.436;-2.518;2023-08-06T04:51:37;9.20;99.90
48860;DHT22;34679;51.436;-2.518;2023-08-06T04:54:04;9.20;99.90
48860;DHT22;34679;51.436;-2.518;2023-08-06T04:56:29;9.20;99.90
48860;DHT22;34679;51.436;-2.518;2023-08-06T04:58:55;9.20;99.90
48860;DHT22;34679;51.436;-2.518;2023-08-06T05:01:21;9.30;99.90
48860;DHT22;34679;51.436;-2.518;2023-08-06T05:03:47;9.40;99.90
48860;DHT22;34679;51.436;-2.518;2023-08-06T05:06:13;9.40;99.90
48860;DHT22;34679;51.436;-2.518;2023-08-06T05:08:39;9.50;99.90
48860;DHT22;34679;51.436;-2.518;2023-08-06T05:11:04;9.50;99.90
48860;DHT22;34679;51.436;-2.518;2023-08-06T05:13:30;9.60;99.90
48860;DHT22;34679;51.436;-2.518;2023-08-06T05:15:56;9.60;99.90
48860;DHT22;34679;51.436;-2.518;2023-08-06T05:18:22;9.70;99.90
48860;DHT22;34679;51.436;-2.518;2023-08-06T05:20:48;9.80;99.90
48860;DHT22;34679;51.436;-2.518;2023-08-06T05:23:13;10.00;99.90
48860;DHT22;34679;51.436;-2.518;2023-08-06T05:25:39;10.80;99.90
48860;DHT22;34679;51.436;-2.518;2023-08-06T05:28:05;11.80;99.90
48860;DHT22;34679;51.436;-2.518;2023-08-06T05:30:31;12.30;99.90
48860;DHT22;34679;51.436;-2.518;2023-08-06T05:32:57;12.60;99.90
48860;DHT22;34679;51.436;-2.518;2023-08-06T05:35:22;12.80;99.90
48860;DHT22;34679;51.436;-2.518;2023-08-06T05:37:51;12.60;99.90
48860;DHT22;34679;51.436;-2.518;2023-08-06T05:40:17;12.40;99.90
48860;DHT22;34679;51.436;-2.518;2023-08-06T05:42:43;12.10;99.90
48860;DHT22;34679;51.436;-2.518;2023-08-06T05:45:09;11.90;99.90
48860;DHT22;34679;51.436;-2.518;2023-08-06T05:47:35;11.70;99.90
48860;DHT22;34679;51.436;-2.518;2023-08-06T05:50:01;11.70;99.90
48860;DHT22;34679;51.436;-2.518;2023-08-06T05:52:26;11.60;99.90
48860;DHT22;34679;51.436;-2.518;2023-08-06T05:54:52;11.60;99.90
48860;DHT22;34679;51.436;-2.518;2023-08-06T05:57:18;11.70;99.90
48860;DHT22;34679;51.436;-2.518;2023-08-06T05:59:44;11.70;99.90
48860;DHT22;34679;51.436;-2.518;2023-08-06T06:02:09;11.70;99.90
48860;DHT22;34679;51.436;-2.518;2023-08-06T06:04:35;11.70;99.90
48860;DHT22;34679;51.436;-2.518;2023-08-06T06:07:01;11.70;99.90
48860;DHT22;34679;51.436;-2.518;2023-08-06T06:09:26;11.80;99.90
48860;DHT22;34679;51.436;-2.518;2023-08-06T06:11:52;11.90;99.90
48860;DHT22;34679;51.436;-2.518;2023-08-06T06:14:18;11.90;99.90
48860;DHT22;34679;51.436;-2.518;2023-08-06T06:16:45;12.00;99.90
48860;DHT22;34679;51.436;-2.518;2023-08-06T06:19:11;12.10;99.90
48860;DHT22;34679;51.436;-2.518;2023-08-06T06:21:37;12.20;99.90
48860;DHT22;34679;51.436;-2.518;2023-08-06T06:24:06;12.30;99.90
48860;DHT22;34679;51.436;-2.518;2023-08-06T06:26:33;12.30;99.90
48860;DHT22;34679;51.436;-2.518;2023-08-06T06:28:59;13.20;99.90
48860;DHT22;34679;51.436;-2.518;2023-08-06T06:31:25;14.70;99.90
48860;DHT22;34679;51.436;-2.518;2023-08-06T06:33:50;16.20;99.90
48860;DHT22;34679;51.436;-2.518;2023-08-06T06:36:18;17.60;99.90
48860;DHT22;34679;51.436;-2.518;2023-08-06T06:38:44;19.20;99.90
48860;DHT22;34679;51.436;-2.518;2023-08-06T06:41:10;19.00;99.90
48860;DHT22;34679;51.436;-2.518;2023-08-06T06:43:36;18.70;99.90
48860;DHT22;34679;51.436;-2.518;2023-08-06T06:46:03;19.10;99.90
48860;DHT22;34679;51.436;-2.518;2023-08-06T06:48:31;19.60;99.90
48860;DHT22;34679;51.436;-2.518;2023-08-06T06:50:57;19.70;99.90
48860;DHT22;34679;51.436;-2.518;2023-08-06T06:53:23;19.40;99.90
48860;DHT22;34679;51.436;-2.518;2023-08-06T06:56:00;19.20;99.90
48860;DHT22;34679;51.436;-2.518;2023-08-06T06:58:26;18.80;99.90
48860;DHT22;34679;51.436;-2.518;2023-08-06T07:00:52;18.30;99.90
48860;DHT22;34679;51.436;-2.518;2023-08-06T07:03:19;17.80;99.90
48860;DHT22;34679;51.436;-2.518;2023-08-06T07:05:45;17.60;99.90
48860;DHT22;34679;51.436;-2.518;2023-08-06T07:08:11;17.60;99.90
48860;DHT22;34679;51.436;-2.518;2023-08-06T07:10:37;17.60;99.90
48860;DHT22;34679;51.436;-2.518;2023-08-06T07:13:02;17.30;99.90
48860;DHT22;34679;51.436;-2.518;2023-08-06T07:15:28;17.20;99.90
48860;DHT22;34679;51.436;-2.518;2023-08-06T07:17:54;16.90;99.90
48860;DHT22;34679;51.436;-2.518;2023-08-06T07:20:20;16.70;99.90
48860;DHT22;34679;51.436;-2.518;2023-08-06T07:22:46;16.60;99.90
48860;DHT22;34679;51.436;-2.518;2023-08-06T07:25:11;16.60;99.90
48860;DHT22;34679;51.436;-2.518;2023-08-06T07:27:37;16.40;99.90
48860;DHT22;34679;51.436;-2.518;2023-08-06T07:30:03;16.60;99.90
48860;DHT22;34679;51.436;-2.518;2023-08-06T07:32:30;17.00;99.90
48860;DHT22;34679;51.436;-2.518;2023-08-06T07:34:56;17.20;99.90
48860;DHT22;34679;51.436;-2.518;2023-08-06T07:37:26;18.30;99.90
48860;DHT22;34679;51.436;-2.518;2023-08-06T07:39:56;19.60;99.90
48860;DHT22;34679;51.436;-2.518;2023-08-06T07:42:22;20.60;99.90
48860;DHT22;34679;51.436;-2.518;2023-08-06T07:44:56;21.60;99.90
48860;DHT22;34679;51.436;-2.518;2023-08-06T07:47:22;21.70;99.90
48860;DHT22;34679;51.436;-2.518;2023-08-06T07:49:48;22.30;99.90
48860;DHT22;34679;51.436;-2.518;2023-08-06T07:52:14;22.60;99.90
48860;DHT22;34679;51.436;-2.518;2023-08-06T07:54:39;23.50;99.90
48860;DHT22;34679;51.436;-2.518;2023-08-06T07:57:05;24.70;99.90
48860;DHT22;34679;51.436;-2.518;2023-08-06T07:59:31;23.70;99.90
48860;DHT22;34679;51.436;-2.518;2023-08-06T08:01:57;23.70;99.90
48860;DHT22;34679;51.436;-2.518;2023-08-06T08:04:23;23.90;99.90
48860;DHT22;34679;51.436;-2.518;2023-08-06T08:06:50;23.30;99.90
48860;DHT22;34679;51.436;-2.518;2023-08-06T08:09:15;23.30;99.90
48860;DHT22;34679;51.436;-2.518;2023-08-06T08:11:42;22.60;99.90
48860;DHT22;34679;51.436;-2.518;2023-08-06T08:14:07;22.40;99.90
48860;DHT22;34679;51.436;-2.518;2023-08-06T08:16:33;22.80;99.90
48860;DHT22;34679;51.436;-2.518;2023-08-06T08:18:59;23.40;99.90
48860;DHT22;34679;51.436;-2.518;2023-08-06T08:21:25;23.50;99.80
48860;DHT22;34679;51.436;-2.518;2023-08-06T08:23:51;22.90;99.90
48860;DHT22;34679;51.436;-2.518;2023-08-06T08:26:17;23.70;99.90
48860;DHT22;34679;51.436;-2.518;2023-08-06T08:28:42;24.60;99.90
48860;DHT22;34679;51.436;-2.518;2023-08-06T08:31:09;25.40;98.80
48860;DHT22;34679;51.436;-2.518;2023-08-06T08:33:35;26.10;98.00
48860;DHT22;34679;51.436;-2.518;2023-08-06T08:36:00;26.00;97.70
48860;DHT22;34679;51.436;-2.518;2023-08-06T08:38:26;24.90;98.30
48860;DHT22;34679;51.436;-2.518;2023-08-06T08:40:53;25.50;97.50
48860;DHT22;34679;51.436;-2.518;2023-08-06T08:43:23;25.10;97.50
48860;DHT22;34679;51.436;-2.518;2023-08-06T08:45:52;25.40;98.10
48860;DHT22;34679;51.436;-2.518;2023-08-06T08:48:21;24.90;98.30
48860;DHT22;34679;51.436;-2.518;2023-08-06T08:50:49;23.40;99.70
48860;DHT22;34679;51.436;-2.518;2023-08-06T08:53:16;23.00;99.90
48860;DHT22;34679;51.436;-2.518;2023-08-06T08:55:46;22.20;99.90
48860;DHT22;34679;51.436;-2.518;2023-08-06T08:58:12;22.50;99.90
48860;DHT22;34679;51.436;-2.518;2023-08-06T09:00:40;22.20;99.90
48860;DHT22;34679;51.436;-2.518;2023-08-06T09:03:06;22.00;99.90
48860;DHT22;34679;51.436;-2.518;2023-08-06T09:05:33;21.50;99.90
48860;DHT22;34679;51.436;-2.518;2023-08-06T09:08:03;21.10;99.90
48860;DHT22;34679;51.436;-2.518;2023-08-06T09:10:29;20.90;99.90
48860;DHT22;34679;51.436;-2.518;2023-08-06T09:12:56;20.40;99.90
48860;DHT22;34679;51.436;-2.518;2023-08-06T09:15:25;20.30;99.90
48860;DHT22;34679;51.436;-2.518;2023-08-06T09:17:55;20.20;99.90
48860;DHT22;34679;51.436;-2.518;2023-08-06T09:20:21;20.10;99.90
48860;DHT22;34679;51.436;-2.518;2023-08-06T09:22:46;19.80;99.90
48860;DHT22;34679;51.436;-2.518;2023-08-06T09:25:24;19.70;99.90
48860;DHT22;34679;51.436;-2.518;2023-08-06T09:27:51;19.90;99.90
48860;DHT22;34679;51.436;-2.518;2023-08-06T09:30:34;19.40;99.90
48860;DHT22;34679;51.436;-2.518;2023-08-06T09:33:00;18.70;99.90
48860;DHT22;34679;51.436;-2.518;2023-08-06T09:35:30;18.20;99.90
48860;DHT22;34679;51.436;-2.518;2023-08-06T09:38:09;17.70;99.90
48860;DHT22;34679;51.436;-2.518;2023-08-06T09:40:36;17.30;99.90
48860;DHT22;34679;51.436;-2.518;2023-08-06T09:43:02;16.90;99.90
48860;DHT22;34679;51.436;-2.518;2023-08-06T09:45:33;16.80;99.90
48860;DHT22;34679;51.436;-2.518;2023-08-06T09:48:02;16.60;99.90
48860;DHT22;34679;51.436;-2.518;2023-08-06T09:50:33;16.70;99.90
48860;DHT22;34679;51.436;-2.518;2023-08-06T09:53:00;17.20;99.90
48860;DHT22;34679;51.436;-2.518;2023-08-06T09:55:26;17.90;99.90
48860;DHT22;34679;51.436;-2.518;2023-08-06T09:57:53;18.30;99.90
48860;DHT22;34679;51.436;-2.518;2023-08-06T10:00:19;18.80;99.90
48860;DHT22;34679;51.436;-2.518;2023-08-06T10:02:46;19.10;99.90
48860;DHT22;34679;51.436;-2.518;2023-08-06T10:05:12;18.90;99.90
48860;DHT22;34679;51.436;-2.518;2023-08-06T10:07:38;18.90;99.90
48860;DHT22;34679;51.436;-2.518;2023-08-06T10:10:05;18.90;99.90
48860;DHT22;34679;51.436;-2.518;2023-08-06T10:12:39;19.00;99.90
48860;DHT22;34679;51.436;-2.518;2023-08-06T10:15:10;19.10;99.90
48860;DHT22;34679;51.436;-2.518;2023-08-06T10:17:38;19.30;99.90
48860;DHT22;34679;51.436;-2.518;2023-08-06T10:20:06;19.70;99.90
48860;DHT22;34679;51.436;-2.518;2023-08-06T10:22:33;20.20;99.90
48860;DHT22;34679;51.436;-2.518;2023-08-06T10:25:00;20.50;99.90
48860;DHT22;34679;51.436;-2.518;2023-08-06T10:30:30;20.70;99.90
48860;DHT22;34679;51.436;-2.518;2023-08-06T10:33:03;20.40;99.90
48860;DHT22;34679;51.436;-2.518;2023-08-06T10:37:58;20.60;99.90
48860;DHT22;34679;51.436;-2.518;2023-08-06T10:40:25;20.60;99.90
48860;DHT22;34679;51.436;-2.518;2023-08-06T10:42:51;20.80;99.90
48860;DHT22;34679;51.436;-2.518;2023-08-06T10:45:18;21.20;99.90
48860;DHT22;34679;51.436;-2.518;2023-08-06T10:47:45;21.30;99.90
48860;DHT22;34679;51.436;-2.518;2023-08-06T10:50:13;21.10;99.90
48860;DHT22;34679;51.436;-2.518;2023-08-06T10:52:42;20.90;99.90
48860;DHT22;34679;51.436;-2.518;2023-08-06T10:55:08;20.80;99.90
48860;DHT22;34679;51.436;-2.518;2023-08-06T10:57:34;20.50;99.90
48860;DHT22;34679;51.436;-2.518;2023-08-06T11:00:00;20.80;99.90
48860;DHT22;34679;51.436;-2.518;2023-08-06T11:02:26;21.00;99.90
48860;DHT22;34679;51.436;-2.518;2023-08-06T11:04:52;21.00;99.90
48860;DHT22;34679;51.436;-2.518;2023-08-06T11:07:17;20.60;99.90
48860;DHT22;34679;51.436;-2.518;2023-08-06T11:09:43;20.30;99.90
48860;DHT22;34679;51.436;-2.518;2023-08-06T11:12:12;20.30;99.90
48860;DHT22;34679;51.436;-2.518;2023-08-06T11:14:50;20.20;99.90
48860;DHT22;34679;51.436;-2.518;2023-08-06T11:17:16;20.20;99.90
48860;DHT22;34679;51.436;-2.518;2023-08-06T11:19:41;20.50;99.90
48860;DHT22;34679;51.436;-2.518;2023-08-06T11:22:07;20.90;99.90
48860;DHT22;34679;51.436;-2.518;2023-08-06T11:24:33;20.90;99.90
48860;DHT22;34679;51.436;-2.518;2023-08-06T11:26:58;20.90;99.90
48860;DHT22;34679;51.436;-2.518;2023-08-06T11:29:24;21.10;99.90
48860;DHT22;34679;51.436;-2.518;2023-08-06T11:31:50;20.70;99.90
48860;DHT22;34679;51.436;-2.518;2023-08-06T11:34:15;20.70;99.90
48860;DHT22;34679;51.436;-2.518;2023-08-06T11:36:42;20.00;99.90
48860;DHT22;34679;51.436;-2.518;2023-08-06T11:39:09;19.70;99.90
48860;DHT22;34679;51.436;-2.518;2023-08-06T11:41:36;19.60;99.90
48860;DHT22;34679;51.436;-2.518;2023-08-06T11:44:03;19.90;99.90
48860;DHT22;34679;51.436;-2.518;2023-08-06T11:46:29;19.90;99.90
48860;DHT22;34679;51.436;-2.518;2023-08-06T11:49:14;19.90;99.90
48860;DHT22;34679;51.436;-2.518;2023-08-06T11:51:40;19.90;99.90
48860;DHT22;34679;51.436;-2.518;2023-08-06T11:54:06;19.80;99.90
48860;DHT22;34679;51.436;-2.518;2023-08-06T11:56:32;19.70;99.90
48860;DHT22;34679;51.436;-2.518;2023-08-06T11:58:58;19.80;99.90
48860;DHT22;34679;51.436;-2.518;2023-08-06T12:01:25;20.20;99.90
48860;DHT22;34679;51.436;-2.518;2023-08-06T12:03:51;20.10;99.90
48860;DHT22;34679;51.436;-2.518;2023-08-06T12:06:16;20.00;99.90
48860;DHT22;34679;51.436;-2.518;2023-08-06T12:08:42;19.80;99.90
48860;DHT22;34679;51.436;-2.518;2023-08-06T12:11:08;19.70;99.90
48860;DHT22;34679;51.436;-2.518;2023-08-06T12:13:34;19.40;99.90
48860;DHT22;34679;51.436;-2.518;2023-08-06T12:16:00;19.00;99.90
48860;DHT22;34679;51.436;-2.518;2023-08-06T12:18:25;18.70;99.90
48860;DHT22;34679;51.436;-2.518;2023-08-06T12:20:51;18.90;99.90
48860;DHT22;34679;51.436;-2.518;2023-08-06T12:23:17;19.30;99.90
48860;DHT22;34679;51.436;-2.518;2023-08-06T12:25:43;19.30;99.90
48860;DHT22;34679;51.436;-2.518;2023-08-06T12:28:10;19.80;99.90
48860;DHT22;34679;51.436;-2.518;2023-08-06T12:30:36;20.10;99.90
48860;DHT22;34679;51.436;-2.518;2023-08-06T12:33:02;20.20;99.90
48860;DHT22;34679;51.436;-2.518;2023-08-06T12:35:27;20.10;99.90
48860;DHT22;34679;51.436;-2.518;2023-08-06T12:37:53;20.20;99.90
48860;DHT22;34679;51.436;-2.518;2023-08-06T12:40:20;20.20;99.90
48860;DHT22;34679;51.436;-2.518;2023-08-06T12:42:46;20.00;99.90
48860;DHT22;34679;51.436;-2.518;2023-08-06T12:45:12;20.20;99.90
48860;DHT22;34679;51.436;-2.518;2023-08-06T12:47:39;20.50;99.90
48860;DHT22;34679;51.436;-2.518;2023-08-06T12:50:05;20.50;99.90
48860;DHT22;34679;51.436;-2.518;2023-08-06T12:52:31;20.60;99.90
48860;DHT22;34679;51.436;-2.518;2023-08-06T12:54:56;20.60;99.90
48860;DHT22;34679;51.436;-2.518;2023-08-06T12:57:22;21.10;99.90
48860;DHT22;34679;51.436;-2.518;2023-08-06T12:59:48;21.30;99.90
48860;DHT22;34679;51.436;-2.518;2023-08-06T13:02:13;21.30;99.90
48860;DHT22;34679;51.436;-2.518;2023-08-06T13:04:39;20.50;99.90
48860;DHT22;34679;51.436;-2.518;2023-08-06T13:07:05;19.80;99.90
48860;DHT22;34679;51.436;-2.518;2023-08-06T13:09:32;19.50;99.90
48860;DHT22;34679;51.436;-2.518;2023-08-06T13:11:58;19.60;99.90
48860;DHT22;34679;51.436;-2.518;2023-08-06T13:14:25;19.90;99.90
48860;DHT22;34679;51.436;-2.518;2023-08-06T13:16:51;20.50;99.90
48860;DHT22;34679;51.436;-2.518;2023-08-06T13:19:16;20.70;99.90
48860;DHT22;34679;51.436;-2.518;2023-08-06T13:24:17;20.40;99.90
48860;DHT22;34679;51.436;-2.518;2023-08-06T13:26:42;20.40;99.90
48860;DHT22;34679;51.436;-2.518;2023-08-06T13:29:08;20.50;99.90
48860;DHT22;34679;51.436;-2.518;2023-08-06T13:31:34;20.40;99.90
48860;DHT22;34679;51.436;-2.518;2023-08-06T13:34:02;20.10;99.90
48860;DHT22;34679;51.436;-2.518;2023-08-06T13:36:28;20.20;99.90
48860;DHT22;34679;51.436;-2.518;2023-08-06T13:38:54;20.10;99.90
48860;DHT22;34679;51.436;-2.518;2023-08-06T13:41:19;20.00;99.90
48860;DHT22;34679;51.436;-2.518;2023-08-06T13:43:45;20.20;99.90
48860;DHT22;34679;51.436;-2.518;2023-08-06T13:46:12;20.20;99.90
48860;DHT22;34679;51.436;-2.518;2023-08-06T13:48:44;20.30;99.90
48860;DHT22;34679;51.436;-2.518;2023-08-06T13:51:10;20.30;99.90
48860;DHT22;34679;51.436;-2.518;2023-08-06T13:53:37;20.10;99.90
48860;DHT22;34679;51.436;-2.518;2023-08-06T13:56:04;19.80;99.90
48860;DHT22;34679;51.436;-2.518;2023-08-06T13:58:29;19.60;99.90
48860;DHT22;34679;51.436;-2.518;2023-08-06T14:00:55;19.50;99.90
48860;DHT22;34679;51.436;-2.518;2023-08-06T14:03:22;19.50;99.90
48860;DHT22;34679;51.436;-2.518;2023-08-06T14:05:47;19.30;99.90
48860;DHT22;34679;51.436;-2.518;2023-08-06T14:08:14;19.10;99.90
48860;DHT22;34679;51.436;-2.518;2023-08-06T14:10:40;19.10;99.90
48860;DHT22;34679;51.436;-2.518;2023-08-06T14:13:06;19.30;99.90
48860;DHT22;34679;51.436;-2.518;2023-08-06T14:15:32;19.30;99.90
48860;DHT22;34679;51.436;-2.518;2023-08-06T14:17:58;19.40;99.90
48860;DHT22;34679;51.436;-2.518;2023-08-06T14:20:24;19.50;99.90
48860;DHT22;34679;51.436;-2.518;2023-08-06T14:22:50;19.50;99.90
48860;DHT22;34679;51.436;-2.518;2023-08-06T14:25:15;19.60;99.90
48860;DHT22;34679;51.436;-2.518;2023-08-06T14:27:41;19.80;99.90
48860;DHT22;34679;51.436;-2.518;2023-08-06T14:30:07;20.00;99.90
48860;DHT22;34679;51.436;-2.518;2023-08-06T14:32:33;19.80;99.90
48860;DHT22;34679;51.436;-2.518;2023-08-06T14:34:59;20.00;99.90
48860;DHT22;34679;51.436;-2.518;2023-08-06T14:37:25;20.20;99.90
48860;DHT22;34679;51.436;-2.518;2023-08-06T14:39:51;19.90;99.90
48860;DHT22;34679;51.436;-2.518;2023-08-06T14:42:17;19.70;99.90
48860;DHT22;34679;51.436;-2.518;2023-08-06T14:44:43;19.70;99.90
48860;DHT22;34679;51.436;-2.518;2023-08-06T14:47:12;19.50;99.90
48860;DHT22;34679;51.436;-2.518;2023-08-06T14:49:38;19.70;99.90
48860;DHT22;34679;51.436;-2.518;2023-08-06T14:52:05;19.10;99.90
48860;DHT22;34679;51.436;-2.518;2023-08-06T14:54:31;20.00;99.90
48860;DHT22;34679;51.436;-2.518;2023-08-06T14:56:56;20.10;99.90
48860;DHT22;34679;51.436;-2.518;2023-08-06T14:59:22;20.20;99.90
48860;DHT22;34679;51.436;-2.518;2023-08-06T15:01:48;20.30;99.90
48860;DHT22;34679;51.436;-2.518;2023-08-06T15:04:14;20.30;99.90
48860;DHT22;34679;51.436;-2.518;2023-08-06T15:06:39;20.00;99.90
48860;DHT22;34679;51.436;-2.518;2023-08-06T15:09:05;20.10;99.90
48860;DHT22;34679;51.436;-2.518;2023-08-06T15:11:31;19.90;99.90
48860;DHT22;34679;51.436;-2.518;2023-08-06T15:13:56;19.80;99.90
48860;DHT22;34679;51.436;-2.518;2023-08-06T15:16:22;19.90;99.90
48860;DHT22;34679;51.436;-2.518;2023-08-06T15:18:48;20.00;99.90
48860;DHT22;34679;51.436;-2.518;2023-08-06T15:21:14;20.30;99.90
48860;DHT22;34679;51.436;-2.518;2023-08-06T15:23:40;20.40;99.90
48860;DHT22;34679;51.436;-2.518;2023-08-06T15:26:05;20.50;99.90
48860;DHT22;34679;51.436;-2.518;2023-08-06T15:28:31;20.50;99.90
48860;DHT22;34679;51.436;-2.518;2023-08-06T15:30:57;20.30;99.90
48860;DHT22;34679;51.436;-2.518;2023-08-06T15:33:23;20.20;99.90